Time;durP1;ratioP1;P1;durP2;ratioP2;P2;SDS_P1;SDS_P2;PMS_P1;PMS_P2;Temp;Humidity;BMP_temperature;BMP_pressure;BME280_temperature;BME280_humidity;BME280_pressure;Samples;Min_cycle;Max_cycle;Signal;HPM_P1;HPM_P2
2021/10/01 15:53:48;;;;;;;25.48;3.80;;;;;;;12.64;100.00;101024.47;5399534;24;20072;-83
2021/10/01 15:56:13;;;;;;;13.50;3.13;;;;;;;11.93;100.00;100908.22;4799011;30;20049;-82
2021/10/01 16:24:31;;;;;;;20.77;4.05;;;;;;;11.72;100.00;100882.19;5366872;24;20055;-82
2021/10/01 16:32:02;;;;;;;20.73;3.45;;;;;;;11.88;100.00;100906.09;4813089;29;20035;-84
2021/10/01 16:34:27;;;;;;;21.13;3.80;;;;;;;12.34;100.00;100967.38;4799274;30;20046;-82
2021/10/01 16:36:53;;;;;;;18.60;4.40;;;;;;;11.91;100.00;100915.66;4813989;29;20031;-82
2021/10/01 16:39:18;;;;;;;16.20;3.50;;;;;;;11.90;100.00;100914.84;4797971;30;20024;-83
2021/10/01 16:41:45;;;;;;;21.70;3.42;;;;;;;12.35;100.00;100992.47;4797795;30;20027;-82
2021/10/01 16:44:16;;;;;;;15.48;3.40;;;;;;;11.82;100.00;100900.66;4807061;29;20031;-83
2021/10/01 16:46:44;;;;;;;15.57;3.85;;;;;;;12.38;100.00;100992.06;4783597;30;20027;-82
2021/10/01 16:49:10;;;;;;;20.83;3.60;;;;;;;11.77;100.00;100904.00;4801267;29;20028;-82
2021/10/01 16:51:36;;;;;;;24.15;4.43;;;;;;;12.74;100.00;101047.53;4789151;30;20035;-81
2021/10/01 16:54:01;;;;;;;25.30;5.40;;;;;;;11.99;100.00;100915.47;5289083;24;20062;-82
2021/10/01 16:56:28;;;;;;;24.50;5.90;;;;;;;12.07;100.00;100949.50;4798089;30;20023;-82
2021/10/01 16:58:54;;;;;;;20.42;4.97;;;;;;;12.76;100.00;101058.97;4839127;24;20030;-81
2021/10/01 17:01:20;;;;;;;24.70;6.10;;;;;;;12.78;100.00;101048.78;4816588;29;20158;-81
2021/10/01 17:14:06;;;;;;;19.40;3.95;;;;;;;12.05;100.00;100928.13;5805119;24;20065;-76
2021/10/01 17:16:32;;;;;;;32.03;6.60;;;;;;;12.42;100.00;100986.06;4828505;24;20116;-81
2021/10/01 17:18:57;;;;;;;36.13;13.95;;;;;;;12.86;100.00;101062.91;4861146;24;20051;-79
2021/10/01 17:21:23;;;;;;;17.48;3.85;;;;;;;12.88;100.00;101044.66;4774718;30;20114;-79
2021/10/01 17:23:48;;;;;;;20.85;4.07;;;;;;;12.86;100.00;101059.38;4774355;30;20032;-78
2021/10/01 17:26:14;;;;;;;22.23;3.60;;;;;;;12.82;100.00;101050.03;4774616;30;20042;-80
2021/10/01 17:28:39;;;;;;;21.80;3.85;;;;;;;12.78;100.00;101051.47;4750607;30;20497;-80
2021/10/01 17:31:05;;;;;;;24.75;3.97;;;;;;;12.78;100.00;101056.88;4732653;30;20036;-80
2021/10/01 17:33:30;;;;;;;20.40;3.05;;;;;;;12.76;100.00;101048.16;4763085;30;20401;-82
2021/10/01 17:35:56;;;;;;;20.27;3.55;;;;;;;12.76;100.00;101054.41;4799381;29;20038;-82
2021/10/01 17:38:21;;;;;;;20.73;3.10;;;;;;;12.74;100.00;101059.16;4774166;30;20054;-80
2021/10/01 17:40:47;;;;;;;15.77;3.15;;;;;;;12.79;100.00;101058.56;4798581;30;20031;-82
2021/10/01 17:43:12;;;;;;;16.77;2.85;;;;;;;12.77;100.00;101066.03;4787448;30;20050;-81
2021/10/01 17:45:38;;;;;;;19.50;3.30;;;;;;;12.80;100.00;101054.81;4792754;30;20019;-81
2021/10/01 17:48:06;;;;;;;17.00;3.67;;;;;;;12.76;100.00;101058.97;4792081;30;20023;-82
2021/10/01 17:53:07;;;;;;;19.77;3.47;;;;;;;12.51;100.00;101035.25;5503540;24;20050;-81
2021/10/01 17:55:34;;;;;;;25.77;3.60;;;;;;;12.79;100.00;101075.59;4821868;29;20072;-82
2021/10/01 17:58:02;;;;;;;19.42;3.83;;;;;;;12.52;100.00;101018.06;4821952;29;20031;-81
2021/10/01 18:00:32;;;;;;;19.45;3.90;;;;;;;11.83;100.00;100921.22;4822511;29;20011;-82
2021/10/01 18:02:58;;;;;;;19.35;3.40;;;;;;;12.54;100.00;101020.53;4800703;29;20030;-81
2021/10/01 18:05:23;;;;;;;16.05;3.00;;;;;;;12.33;100.00;100995.41;4806272;29;20038;-80
2021/10/01 18:07:49;;;;;;;14.88;3.42;;;;;;;12.20;100.00;100977.31;4803724;29;20046;-80
2021/10/01 18:10:16;;;;;;;20.48;3.70;;;;;;;12.80;100.00;101093.44;4799089;29;20031;-81
2021/10/01 18:12:43;;;;;;;18.55;3.63;;;;;;;12.80;100.00;101093.44;4802077;29;20102;-81
2021/10/01 18:15:08;;;;;;;22.73;3.45;;;;;;;12.73;100.00;101070.19;4781116;29;20031;-80
2021/10/01 18:17:34;;;;;;;16.08;3.50;;;;;;;12.78;100.00;101073.94;4790160;29;20038;-80
2021/10/01 18:19:59;;;;;;;20.98;3.53;;;;;;;12.70;100.00;101072.25;4791598;29;20066;-80
2021/10/01 18:22:25;;;;;;;22.10;3.72;;;;;;;12.44;100.00;101026.34;4775033;29;20108;-80
2021/10/01 18:24:51;;;;;;;27.00;4.03;;;;;;;12.56;100.00;101058.97;4769520;29;20483;-80
2021/10/01 18:27:16;;;;;;;20.88;3.65;;;;;;;12.62;100.00;101069.75;4802270;29;20127;-80
2021/10/01 18:29:42;;;;;;;25.35;4.40;;;;;;;12.61;100.00;101061.84;4805017;29;20410;-78
2021/10/01 18:32:08;;;;;;;26.33;4.68;;;;;;;12.62;100.00;101075.16;4785607;29;20039;-78
2021/10/01 18:34:33;;;;;;;20.65;3.45;;;;;;;12.57;100.00;101074.94;4778354;29;20046;-79
2021/10/01 18:37:00;;;;;;;16.95;3.28;;;;;;;12.52;100.00;101074.72;4777790;29;20055;-79
2021/10/01 18:39:25;;;;;;;18.40;3.63;;;;;;;12.49;100.00;101069.75;4808810;29;20102;-80
2021/10/01 18:41:50;;;;;;;16.88;3.47;;;;;;;12.40;100.00;101055.59;4809020;29;20065;-80
2021/10/01 18:44:16;;;;;;;20.80;3.75;;;;;;;12.41;100.00;101062.66;4793833;29;20462;-79
2021/10/01 18:46:43;;;;;;;17.95;3.33;;;;;;;12.43;100.00;101084.88;4787378;29;20073;-80
2021/10/01 18:49:08;;;;;;;14.23;3.28;;;;;;;12.40;100.00;101081.75;4803569;29;20046;-79
2021/10/01 18:51:34;;;;;;;18.25;3.17;;;;;;;12.20;100.00;101065.53;4780402;29;20062;-80
2021/10/01 18:54:00;;;;;;;17.35;3.55;;;;;;;12.35;100.00;101078.84;4800652;29;20089;-79
2021/10/01 18:56:26;;;;;;;19.15;3.40;;;;;;;12.33;100.00;101067.44;4798421;29;20085;-79
2021/10/01 18:58:53;;;;;;;23.25;3.65;;;;;;;12.26;100.00;101074.69;4771097;29;20131;-79
2021/10/01 19:01:19;;;;;;;18.25;3.92;;;;;;;12.29;100.00;101074.28;4786242;29;20038;-80
2021/10/01 19:03:45;;;;;;;16.23;2.90;;;;;;;12.23;100.00;101068.66;4804361;29;20054;-80
2021/10/01 19:06:10;;;;;;;23.75;3.58;;;;;;;12.07;100.00;101058.22;4770433;29;20406;-78
2021/10/01 19:08:36;;;;;;;17.13;3.40;;;;;;;12.08;100.00;101057.16;4798433;29;20039;-79
2021/10/01 19:11:04;;;;;;;17.63;3.03;;;;;;;12.17;100.00;101060.53;4803364;29;20074;-78
2021/10/01 19:13:30;;;;;;;22.25;3.35;;;;;;;12.11;100.00;101059.47;4807335;29;20466;-78
2021/10/01 19:15:56;;;;;;;21.77;3.70;;;;;;;12.17;100.00;101068.63;4792390;29;20030;-79
2021/10/01 19:18:25;;;;;;;18.58;4.05;;;;;;;12.13;100.00;101054.72;4776945;29;20027;-79
2021/10/01 19:20:56;;;;;;;26.42;4.55;;;;;;;12.17;100.00;101058.66;4807626;29;20034;-80
2021/10/01 19:23:28;;;;;;;19.88;4.00;;;;;;;12.18;100.00;101052.22;4792765;29;20035;-79
2021/10/01 19:30:50;;;;;;;27.17;4.70;;;;;;;12.21;100.00;101057.22;4805857;29;20072;-78
2021/10/01 19:33:16;;;;;;;17.67;3.20;;;;;;;12.06;100.00;101040.38;4800713;29;20039;-78
2021/10/01 19:35:41;;;;;;;29.35;4.50;;;;;;;12.14;100.00;101050.97;4781182;29;20043;-78
2021/10/01 19:38:08;;;;;;;16.33;3.63;;;;;;;12.18;100.00;101056.78;4770517;29;21680;-78
2021/10/01 19:40:34;;;;;;;16.60;3.25;;;;;;;12.18;100.00;101059.50;4786505;29;20047;-78
2021/10/01 19:43:01;;;;;;;24.85;4.20;;;;;;;12.16;100.00;101065.09;4786340;29;20525;-78
2021/10/01 19:45:27;;;;;;;22.02;3.63;;;;;;;12.12;100.00;101041.41;4776628;29;20385;-78
2021/10/01 19:47:54;;;;;;;25.60;4.18;;;;;;;12.16;100.00;101057.00;4798641;29;20035;-78
2021/10/01 19:50:21;;;;;;;21.85;4.20;;;;;;;12.13;100.00;101049.31;4769086;29;20035;-78
2021/10/01 19:52:47;;;;;;;25.70;4.10;;;;;;;12.20;100.00;101055.56;4772914;29;20146;-78
2021/10/01 19:55:12;;;;;;;17.77;3.55;;;;;;;12.12;100.00;101042.28;4776196;29;20121;-79
2021/10/01 19:57:40;;;;;;;15.10;3.00;;;;;;;12.16;100.00;101045.38;4789097;29;20034;-78
2021/10/01 20:00:14;;;;;;;20.33;3.22;;;;;;;12.11;100.00;101059.47;4774399;29;20104;-78
2021/10/01 20:02:40;;;;;;;14.30;3.13;;;;;;;12.08;100.00;101048.25;4793060;29;20454;-78
2021/10/01 20:05:12;;;;;;;17.08;3.30;;;;;;;12.07;100.00;101049.31;4809463;29;20042;-78
2021/10/01 20:07:41;;;;;;;13.88;3.40;;;;;;;12.06;100.00;101047.66;4807714;29;20031;-78
2021/10/01 20:10:10;;;;;;;13.63;3.13;;;;;;;12.03;100.00;101040.78;4794512;29;20039;-78
2021/10/01 20:12:36;;;;;;;16.70;3.67;;;;;;;11.98;100.00;101038.69;4792131;29;20085;-78
2021/10/01 20:15:03;;;;;;;19.73;3.28;;;;;;;12.04;100.00;101049.69;4793119;29;20216;-78
2021/10/01 20:17:29;;;;;;;18.15;3.55;;;;;;;12.04;100.00;101049.69;4792021;29;20060;-78
2021/10/01 20:20:07;;;;;;;21.00;4.28;;;;;;;12.01;100.00;101040.16;4777694;29;20031;-78
2021/10/01 20:22:54;;;;;;;16.88;3.83;;;;;;;12.07;100.00;101039.34;4767502;29;20125;-77
2021/10/01 20:25:55;;;;;;;22.02;3.97;;;;;;;12.14;100.00;101044.75;4797293;29;20458;-78
2021/10/01 20:47:32;;;;;;;16.75;2.85;;;;;;;11.82;100.00;101048.97;4799561;29;20095;-78
2021/10/01 20:49:57;;;;;;;16.70;3.20;;;;;;;11.90;100.00;101057.75;4783654;29;20132;-79
2021/10/01 20:52:22;;;;;;;21.67;3.80;;;;;;;11.80;100.00;101037.56;4792113;29;20046;-79
2021/10/01 20:54:50;;;;;;;23.10;3.65;;;;;;;11.92;100.00;101042.22;4801551;29;20049;-78
2021/10/01 21:00:06;;;;;;;24.10;3.63;;;;;;;11.95;100.00;101038.25;4792443;29;20041;-78
2021/10/01 21:43:28;;;;;;;19.90;3.67;;;;;;;12.05;100.00;101030.59;4761729;29;20051;-79
2021/10/01 21:48:36;;;;;;;13.77;3.42;;;;;;;11.98;100.00;101024.38;4791592;29;20050;-78
2021/10/01 21:51:02;;;;;;;17.83;3.80;;;;;;;11.96;100.00;101016.50;4790926;29;20066;-79
2021/10/01 21:53:30;;;;;;;15.45;3.63;;;;;;;11.99;100.00;101029.56;4806398;29;20138;-77
2021/10/01 21:55:59;;;;;;;19.40;4.30;;;;;;;11.93;100.00;101010.69;4805884;29;20031;-79
2021/10/01 21:58:28;;;;;;;17.05;3.30;;;;;;;11.94;100.00;101021.25;4791838;29;21455;-78
2021/10/01 22:07:18;;;;;;;29.35;5.07;;;;;;;11.89;100.00;101009.44;4806876;29;20127;-79
2021/10/01 22:09:08;;;;;;;26.98;3.90;;;;;;;11.84;100.00;100996.53;4806744;29;20023;-79
2021/10/01 22:22:19;;;;;;;21.10;3.58;;;;;;;11.95;100.00;100992.41;4806837;29;20072;-78
2021/10/01 22:24:45;;;;;;;19.55;3.50;;;;;;;11.89;100.00;100985.16;4790381;29;20034;-78
2021/10/01 22:27:10;;;;;;;18.75;4.28;;;;;;;11.89;100.00;100987.84;4787476;29;20378;-78
2021/10/01 22:29:39;;;;;;;17.30;4.38;;;;;;;11.96;100.00;100991.41;4771263;29;20042;-79
2021/10/01 22:32:05;;;;;;;16.60;3.65;;;;;;;11.98;100.00;101002.78;4782493;29;20110;-78
2021/10/01 22:34:33;;;;;;;20.23;3.70;;;;;;;11.91;100.00;100988.47;4787945;29;20544;-78
2021/10/01 22:36:59;;;;;;;18.70;4.07;;;;;;;11.88;100.00;100991.56;4785905;29;20106;-78
2021/10/01 22:39:26;;;;;;;24.23;3.88;;;;;;;11.93;100.00;101002.59;4787294;29;20062;-78
2021/10/01 22:41:58;;;;;;;19.20;4.32;;;;;;;11.89;100.00;100987.84;4802551;29;20035;-78
2021/10/01 22:44:25;;;;;;;19.67;4.03;;;;;;;11.88;100.00;100991.56;4783341;29;20116;-78
2021/10/01 22:46:53;;;;;;;17.60;4.68;;;;;;;11.91;100.00;100991.16;4775955;29;20035;-78
2021/10/01 22:49:19;;;;;;;19.90;4.07;;;;;;;11.89;100.00;100977.91;4790866;29;20073;-78
2021/10/01 22:51:45;;;;;;;20.40;4.22;;;;;;;11.91;100.00;100978.50;4762312;29;20062;-78
2021/10/01 22:54:13;;;;;;;22.75;4.53;;;;;;;11.94;100.00;100969.19;4776891;29;20051;-78
2021/10/01 22:56:39;;;;;;;26.42;4.95;;;;;;;11.90;100.00;100957.16;4805535;29;20046;-78
2021/10/01 22:59:04;;;;;;;22.13;4.65;;;;;;;11.95;100.00;100962.75;4802854;29;20035;-78
2021/10/01 23:01:30;;;;;;;24.13;4.53;;;;;;;11.94;100.00;100961.91;4786098;29;20366;-79
2021/10/01 23:03:57;;;;;;;19.23;4.47;;;;;;;11.91;100.00;100956.94;4765022;29;20039;-78
2021/10/01 23:06:24;;;;;;;21.30;4.07;;;;;;;11.91;100.00;100945.31;4783669;29;20365;-79
2021/10/01 23:08:52;;;;;;;18.67;3.95;;;;;;;11.91;100.00;100951.53;4802923;29;20529;-78
2021/10/01 23:11:23;;;;;;;16.65;3.70;;;;;;;11.89;100.00;100950.94;4802286;29;20027;-78
2021/10/01 23:13:59;;;;;;;15.68;3.28;;;;;;;11.87;100.00;100952.16;4790557;29;20421;-78
